Bookmark and Share
Track history (hours):
 

Callsign J8B4713 (name unknown)

Last reported at 2012-Jul-25 08:31 UTC. Time now 2014-Apr-18 08:09 UTC.
Position N 28°08' W 015°25'.
Warning: this ship's position is years out of date!

NotesDate/timePositionNaut miles runAvg speedWind from/ knotsBaromVisibWave heightAir tempDewpointWater temp
2012-Jul-25 08:31N 28°08' W 015°25'0 0.0
2012-Jul-25 07:31N 28°08' W 015°25'0 0.0
2012-Jul-25 06:31N 28°08' W 015°25'0 0.0
2012-Jul-25 05:31N 28°08' W 015°25'0 0.0
2012-Jul-25 04:37N 28°08' W 015°25'0 0.0
2012-Jul-25 03:31N 28°08' W 015°25'0 0.0
2012-Jul-25 02:28N 28°08' W 015°25'0 0.0
2012-Jul-25 01:31N 28°08' W 015°25'0 0.0
2012-Jul-25 00:28N 28°08' W 015°25'0 0.0
2012-Jul-24 23:31N 28°08' W 015°25'0 0.0
2012-Jul-24 22:31N 28°08' W 015°25'0 0.0
2012-Jul-24 21:28N 28°08' W 015°25'0 0.0
2012-Jul-24 20:28N 28°08' W 015°25'0 0.0
2012-Jul-24 19:31N 28°08' W 015°25'0 0.0
2012-Jul-24 18:31N 28°08' W 015°25'0 0.0
2012-Jul-24 17:31N 28°08' W 015°25'0 0.0
2012-Jul-24 16:31N 28°08' W 015°25'0 0.0
2012-Jul-24 15:31N 28°08' W 015°25'0 0.0
2012-Jul-24 14:31N 28°08' W 015°25'0 0.0
2012-Jul-24 13:31N 28°08' W 015°25'0 0.0
2012-Jul-24 11:31N 28°08' W 015°25'0 0.0
2012-Jul-24 10:55N 28°08' W 015°25'0 0.0
2012-Jul-24 09:28N 28°08' W 015°25'0 0.0
2012-Jul-24 08:31N 28°08' W 015°25'0 0.0
2012-Jul-24 07:31N 28°08' W 015°25'0 0.0
2012-Jul-24 06:31N 28°08' W 015°25'0 0.0
2012-Jul-24 05:28N 28°08' W 015°25'0 0.0
2012-Jul-24 04:37N 28°08' W 015°25'0 0.0
2012-Jul-24 03:31N 28°08' W 015°25'0 0.0
2012-Jul-24 02:34N 28°08' W 015°25'0 0.0
2012-Jul-24 01:31N 28°08' W 015°25'0 0.0
2012-Jul-24 00:31N 28°08' W 015°25'0 0.0
2012-Jul-23 23:25N 28°08' W 015°25'0 0.0
2012-Jul-23 22:31N 28°08' W 015°25'0 0.0
2012-Jul-23 21:25N 28°08' W 015°25'0 0.0
2012-Jul-23 20:34N 28°08' W 015°25'0 0.0
2012-Jul-23 19:25N 28°08' W 015°25'0 0.0
2012-Jul-23 18:33N 28°08' W 015°25'255 9.4
2012-Jul-22 15:30N 32°13' W 013°59'9 9.5
2012-Jul-22 14:33N 32°21' W 013°56'9 9.4
2012-Jul-22 13:33N 32°30' W 013°53'223 9.7
2012-Jul-21 14:33N 36°05' W 012°39'175 9.7
2012-Jul-20 20:33N 38°51' W 011°34'2010.1
2012-Jul-20 18:32N 39°11' W 011°26'1010.0
2012-Jul-20 17:33N 39°20' W 011°23'11 9.9
2012-Jul-20 16:27N 39°31' W 011°19'  
2012-Jul-16 02:33N 50°34' E 000°16'8 7.6
2012-Jul-16 01:33N 50°36' E 000°27'9 8.7
2012-Jul-16 00:33N 50°40' E 000°40'8 8.5
2012-Jul-15 23:33N 50°45' E 000°50'22 7.1
2012-Jul-15 20:24N 50°59' E 001°18'6 6.6
2012-Jul-15 19:30N 51°03' E 001°25'8 7.9
2012-Jul-15 18:33N 51°08' E 001°34'9 9.2
2012-Jul-15 17:33N 51°14' E 001°45'10 9.9
2012-Jul-15 16:33N 51°23' E 001°52'9 9.2
2012-Jul-15 15:33N 51°31' E 002°00'  

Dump ship's entire track history

sailing weather and tide predictions

Ship Status Report: callsign J8B4713